Time;durP1;ratioP1;P1;durP2;ratioP2;P2;SDS_P1;SDS_P2;PMS_P1;PMS_P2;Temp;Humidity;BMP_temperature;BMP_pressure;BME280_temperature;BME280_humidity;BME280_pressure;Samples;Min_cycle;Max_cycle;Signal;HPM_P1;HPM_P2
2022/03/13 00:02:00;;;;;;;;;;;4.00;92.90;;;;;;5088571;28;19938;-89
2022/03/13 00:04:25;;;;;;;;;;;4.00;92.70;;;;;;5088949;28;19912;-88
2022/03/13 00:06:51;;;;;;;;;;;4.00;92.80;;;;;;5087996;28;19916;-89
2022/03/13 00:09:20;;;;;;;;;;;4.00;91.90;;;;;;5071958;28;19928;-88
2022/03/13 00:11:46;;;;;;;;;;;4.00;91.50;;;;;;5088565;28;19912;-89
2022/03/13 00:14:13;;;;;;;;;;;4.00;91.40;;;;;;5088678;28;20386;-88
2022/03/13 00:16:38;;;;;;;;;;;4.00;91.20;;;;;;5088194;28;20407;-89
2022/03/13 00:19:06;;;;;;;;;;;4.00;90.90;;;;;;5090014;28;19912;-89
2022/03/13 00:21:35;;;;;;;;;;;4.10;90.60;;;;;;5072570;28;19924;-88
2022/03/13 00:24:01;;;;;;;;;;;4.10;91.00;;;;;;5088612;28;19935;-88
2022/03/13 00:26:26;;;;;;;;;;;4.10;91.60;;;;;;5088424;28;19912;-88
2022/03/13 00:28:52;;;;;;;;;;;4.00;91.70;;;;;;5088150;28;19916;-89
2022/03/13 00:31:18;;;;;;;;;;;4.00;90.60;;;;;;5072643;28;19916;-88
2022/03/13 00:33:43;;;;;;;;;;;4.00;90.00;;;;;;5088848;28;19924;-88
2022/03/13 00:36:09;;;;;;;;;;;4.00;88.50;;;;;;5087060;28;19999;-89
2022/03/13 00:38:34;;;;;;;;;;;4.00;86.20;;;;;;5071566;28;19916;-89
2022/03/13 00:41:00;;;;;;;;;;;4.00;85.50;;;;;;5070860;28;19920;-88
2022/03/13 00:43:27;;;;;;;;;;;4.00;84.60;;;;;;5081543;28;19920;-89
2022/03/13 00:45:53;;;;;;;;;;;4.00;84.60;;;;;;5069267;28;19927;-89
2022/03/13 00:48:19;;;;;;;;;;;4.00;84.90;;;;;;5087264;28;20295;-87
2022/03/13 00:50:44;;;;;;;;;;;4.00;83.70;;;;;;5088107;28;19987;-87
2022/03/13 00:53:10;;;;;;;;;;;3.90;84.40;;;;;;5088926;28;20069;-88
2022/03/13 00:55:36;;;;;;;;;;;3.90;83.50;;;;;;5071583;28;19956;-89
2022/03/13 00:58:02;;;;;;;;;;;3.90;83.10;;;;;;5087666;28;20300;-89
2022/03/13 01:00:27;;;;;;;;;;;3.90;82.70;;;;;;5068377;28;20436;-89
2022/03/13 01:02:53;;;;;;;;;;;3.90;81.40;;;;;;5071099;28;20336;-88
2022/03/13 01:05:23;;;;;;;;;;;3.90;81.50;;;;;;5087657;28;19916;-87
2022/03/13 01:07:52;;;;;;;;;;;3.90;80.70;;;;;;5087573;28;20372;-89
2022/03/13 01:10:18;;;;;;;;;;;3.90;78.20;;;;;;5070516;28;20292;-88
2022/03/13 01:12:43;;;;;;;;;;;3.90;78.40;;;;;;5087965;28;19922;-86
2022/03/13 01:15:09;;;;;;;;;;;3.90;78.50;;;;;;5087558;28;20327;-89
2022/03/13 01:17:35;;;;;;;;;;;3.80;78.10;;;;;;5087556;28;19993;-88
2022/03/13 01:20:02;;;;;;;;;;;3.80;78.60;;;;;;5088127;28;20379;-89
2022/03/13 01:22:28;;;;;;;;;;;3.70;77.80;;;;;;5073045;28;19921;-89
2022/03/13 01:24:54;;;;;;;;;;;3.70;77.00;;;;;;5089491;28;19978;-89
2022/03/13 01:27:20;;;;;;;;;;;3.70;77.60;;;;;;5078970;28;19916;-88
2022/03/13 01:29:45;;;;;;;;;;;3.70;78.70;;;;;;5087181;28;20364;-89
2022/03/13 01:32:12;;;;;;;;;;;3.70;79.50;;;;;;5087684;28;19919;-88
2022/03/13 01:34:44;;;;;;;;;;;3.70;80.10;;;;;;5088458;28;19920;-88
2022/03/13 01:37:14;;;;;;;;;;;3.70;79.90;;;;;;5087521;28;19912;-89
2022/03/13 01:39:40;;;;;;;;;;;3.60;79.70;;;;;;5087487;28;19916;-88
2022/03/13 01:42:06;;;;;;;;;;;3.60;80.20;;;;;;5088525;28;19916;-88
2022/03/13 01:44:32;;;;;;;;;;;3.60;79.50;;;;;;5070342;28;20036;-89
2022/03/13 01:46:57;;;;;;;;;;;3.60;78.60;;;;;;5087834;28;19923;-90
2022/03/13 01:49:23;;;;;;;;;;;3.50;77.00;;;;;;5091541;28;20002;-89
2022/03/13 01:51:49;;;;;;;;;;;3.50;74.90;;;;;;5090885;28;19920;-89
2022/03/13 01:54:14;;;;;;;;;;;3.50;75.10;;;;;;5070725;28;19924;-89
2022/03/13 01:56:41;;;;;;;;;;;3.40;74.20;;;;;;5082636;28;19946;-88
2022/03/13 01:59:07;;;;;;;;;;;3.40;73.80;;;;;;5091332;28;19946;-89
2022/03/13 02:01:33;;;;;;;;;;;3.40;72.50;;;;;;5089829;28;19924;-89
2022/03/13 02:03:59;;;;;;;;;;;3.40;73.00;;;;;;5091076;28;19918;-89
2022/03/13 02:06:24;;;;;;;;;;;3.40;73.40;;;;;;5090811;28;19923;-88
2022/03/13 02:08:50;;;;;;;;;;;3.40;73.90;;;;;;5082803;28;19965;-88
2022/03/13 02:11:17;;;;;;;;;;;3.40;73.50;;;;;;5078981;28;19924;-90
2022/03/13 02:13:43;;;;;;;;;;;3.40;73.00;;;;;;5091119;28;19923;-88
2022/03/13 02:16:09;;;;;;;;;;;3.30;72.00;;;;;;5091540;22;19942;-83
2022/03/13 02:18:35;;;;;;;;;;;3.40;74.30;;;;;;5031366;28;19917;-84
2022/03/13 02:21:00;;;;;;;;;;;3.30;76.60;;;;;;5027674;28;19975;-84
2022/03/13 02:23:27;;;;;;;;;;;3.30;77.80;;;;;;5028146;28;19917;-84
2022/03/13 02:25:56;;;;;;;;;;;3.20;79.80;;;;;;5046630;28;20007;-84
2022/03/13 02:28:23;;;;;;;;;;;3.10;81.10;;;;;;5059818;28;20396;-84
2022/03/13 02:30:51;;;;;;;;;;;3.10;81.40;;;;;;5028305;28;19948;-84
2022/03/13 02:33:18;;;;;;;;;;;3.00;82.50;;;;;;5049713;28;19916;-84
2022/03/13 02:35:50;;;;;;;;;;;3.00;83.40;;;;;;5041766;28;19976;-85
2022/03/13 02:38:15;;;;;;;;;;;2.90;84.50;;;;;;5041873;28;20467;-84
2022/03/13 02:40:41;;;;;;;;;;;2.90;84.80;;;;;;5033927;28;19962;-84
2022/03/13 02:43:06;;;;;;;;;;;2.90;82.70;;;;;;5037233;28;19917;-84
2022/03/13 02:45:33;;;;;;;;;;;2.80;82.80;;;;;;5031205;28;19924;-84
2022/03/13 02:47:59;;;;;;;;;;;2.80;83.20;;;;;;5042492;28;19909;-84
2022/03/13 02:50:25;;;;;;;;;;;2.70;82.30;;;;;;5027669;28;19957;-85
2022/03/13 02:52:50;;;;;;;;;;;2.60;83.40;;;;;;5043069;28;19956;-85
2022/03/13 02:55:16;;;;;;;;;;;2.60;83.50;;;;;;5018422;28;19917;-84
2022/03/13 02:57:41;;;;;;;;;;;2.50;84.60;;;;;;5042974;28;19921;-84
2022/03/13 03:00:08;;;;;;;;;;;2.50;87.40;;;;;;5035201;28;19913;-84
2022/03/13 03:02:35;;;;;;;;;;;2.40;90.10;;;;;;5044361;28;19916;-84
2022/03/13 03:05:04;;;;;;;;;;;2.30;91.40;;;;;;5042909;28;19917;-84
2022/03/13 03:07:29;;;;;;;;;;;2.20;92.00;;;;;;5022556;28;20070;-84
2022/03/13 03:09:55;;;;;;;;;;;2.20;93.10;;;;;;5019866;28;20189;-84
2022/03/13 03:12:20;;;;;;;;;;;2.20;93.10;;;;;;5030900;28;19944;-84
2022/03/13 03:14:46;;;;;;;;;;;2.10;92.90;;;;;;5051432;28;19967;-84
2022/03/13 03:17:11;;;;;;;;;;;2.10;92.70;;;;;;5040790;28;19925;-84
2022/03/13 03:19:37;;;;;;;;;;;2.10;92.90;;;;;;5018895;28;20396;-84
2022/03/13 03:22:06;;;;;;;;;;;2.20;92.90;;;;;;5046269;28;19923;-84
2022/03/13 03:24:31;;;;;;;;;;;2.20;92.60;;;;;;5031209;28;19925;-84
2022/03/13 03:26:58;;;;;;;;;;;2.20;91.40;;;;;;5041123;28;19918;-84
2022/03/13 03:29:25;;;;;;;;;;;2.20;91.00;;;;;;5044821;28;19925;-84
2022/03/13 03:31:51;;;;;;;;;;;2.20;90.20;;;;;;5041318;28;19921;-84
2022/03/13 03:34:18;;;;;;;;;;;2.30;90.60;;;;;;5017198;28;19984;-84
2022/03/13 03:36:44;;;;;;;;;;;2.30;90.90;;;;;;5024599;28;19967;-84
2022/03/13 03:39:13;;;;;;;;;;;2.30;91.00;;;;;;5016984;28;19959;-84
2022/03/13 03:41:40;;;;;;;;;;;2.30;91.00;;;;;;5035263;28;19936;-84
2022/03/13 03:44:06;;;;;;;;;;;2.30;91.00;;;;;;5040833;28;20370;-84
2022/03/13 03:46:31;;;;;;;;;;;2.30;91.10;;;;;;5021039;28;20059;-84
2022/03/13 03:48:57;;;;;;;;;;;2.30;91.00;;;;;;5030879;28;20004;-84
2022/03/13 03:51:22;;;;;;;;;;;2.30;90.00;;;;;;5037790;28;19988;-84
2022/03/13 03:53:48;;;;;;;;;;;2.30;90.20;;;;;;5041198;28;19913;-84
2022/03/13 03:56:13;;;;;;;;;;;2.30;89.70;;;;;;5045817;28;20221;-84
2022/03/13 03:58:38;;;;;;;;;;;2.30;89.80;;;;;;5022925;28;20314;-84
2022/03/13 04:01:04;;;;;;;;;;;2.30;89.80;;;;;;5037702;28;19921;-85
2022/03/13 04:03:29;;;;;;;;;;;2.30;90.10;;;;;;5022367;28;19913;-85
2022/03/13 04:05:55;;;;;;;;;;;2.20;90.40;;;;;;5044929;28;19974;-85
2022/03/13 04:08:21;;;;;;;;;;;2.20;90.10;;;;;;5032381;28;19985;-85
2022/03/13 04:10:46;;;;;;;;;;;2.10;90.20;;;;;;5047843;28;19921;-85
2022/03/13 04:13:16;;;;;;;;;;;2.10;90.00;;;;;;5025140;28;19988;-85
2022/03/13 04:15:41;;;;;;;;;;;2.00;90.00;;;;;;5026470;28;19927;-85
2022/03/13 04:18:07;;;;;;;;;;;1.90;91.00;;;;;;5027254;28;20023;-85
2022/03/13 04:20:32;;;;;;;;;;;1.80;92.10;;;;;;5042303;28;19920;-85
2022/03/13 04:22:58;;;;;;;;;;;1.80;93.60;;;;;;5040346;28;19931;-85
2022/03/13 04:25:24;;;;;;;;;;;1.70;94.50;;;;;;5032944;28;19917;-85
2022/03/13 04:27:49;;;;;;;;;;;1.60;95.20;;;;;;5033383;28;20304;-85
2022/03/13 04:30:14;;;;;;;;;;;1.50;95.80;;;;;;5016364;28;19967;-85
2022/03/13 04:32:41;;;;;;;;;;;1.50;96.10;;;;;;5032682;28;19913;-85
2022/03/13 04:35:06;;;;;;;;;;;1.40;96.80;;;;;;5034488;28;20357;-84
2022/03/13 04:37:32;;;;;;;;;;;1.40;97.30;;;;;;5038046;28;19964;-85
2022/03/13 04:39:58;;;;;;;;;;;1.40;97.50;;;;;;5049582;28;19978;-85
2022/03/13 04:42:23;;;;;;;;;;;1.30;97.50;;;;;;5042537;28;19913;-85
2022/03/13 04:44:49;;;;;;;;;;;1.30;97.30;;;;;;5044023;28;19917;-84
2022/03/13 04:47:14;;;;;;;;;;;1.30;97.40;;;;;;5019887;28;20374;-85
2022/03/13 04:49:40;;;;;;;;;;;1.30;97.40;;;;;;5040183;28;19970;-85
2022/03/13 04:52:06;;;;;;;;;;;1.30;97.20;;;;;;5050131;28;20373;-84
2022/03/13 04:54:31;;;;;;;;;;;1.30;97.20;;;;;;5036968;28;19928;-85
2022/03/13 04:56:57;;;;;;;;;;;1.30;97.40;;;;;;5033108;28;19917;-85
2022/03/13 04:59:22;;;;;;;;;;;1.30;97.60;;;;;;5043333;28;19948;-85
2022/03/13 05:01:52;;;;;;;;;;;1.40;98.10;;;;;;5040251;28;20301;-85
2022/03/13 05:04:17;;;;;;;;;;;1.40;98.30;;;;;;5039144;28;19937;-85
2022/03/13 05:06:45;;;;;;;;;;;1.40;98.60;;;;;;5043561;28;19964;-85
2022/03/13 05:09:10;;;;;;;;;;;1.40;98.30;;;;;;5038508;28;20007;-85
2022/03/13 05:11:36;;;;;;;;;;;1.30;98.30;;;;;;5035123;28;19964;-85
2022/03/13 05:14:01;;;;;;;;;;;1.30;97.80;;;;;;5039904;28;19917;-85
2022/03/13 05:16:27;;;;;;;;;;;1.30;97.90;;;;;;5047629;28;19932;-85
2022/03/13 05:18:52;;;;;;;;;;;1.30;98.30;;;;;;5033049;28;20365;-84
2022/03/13 05:21:18;;;;;;;;;;;1.30;98.50;;;;;;5037768;28;19921;-84
2022/03/13 05:23:44;;;;;;;;;;;1.30;98.80;;;;;;5037327;28;19929;-85
2022/03/13 05:26:10;;;;;;;;;;;1.30;99.50;;;;;;5041868;28;20377;-85
2022/03/13 05:28:36;;;;;;;;;;;1.40;99.90;;;;;;5048754;28;19929;-85
2022/03/13 05:31:01;;;;;;;;;;;1.30;99.90;;;;;;5023683;28;19920;-85
2022/03/13 05:33:27;;;;;;;;;;;1.30;99.90;;;;;;5065862;28;19920;-85
2022/03/13 05:35:53;;;;;;;;;;;1.30;99.90;;;;;;5038266;28;20350;-85
2022/03/13 05:38:22;;;;;;;;;;;1.40;99.90;;;;;;5023812;28;20400;-86
2022/03/13 05:40:47;;;;;;;;;;;1.50;99.90;;;;;;5035198;28;19913;-85
2022/03/13 05:43:13;;;;;;;;;;;1.50;99.90;;;;;;5046848;28;19978;-85
2022/03/13 05:45:42;;;;;;;;;;;1.60;99.90;;;;;;5037839;28;19913;-85
2022/03/13 05:48:08;;;;;;;;;;;1.70;99.90;;;;;;5049378;28;19993;-86
2022/03/13 05:50:34;;;;;;;;;;;1.70;99.90;;;;;;5045088;28;20386;-85
2022/03/13 05:53:00;;;;;;;;;;;1.80;99.90;;;;;;5040726;28;19980;-86
2022/03/13 05:55:26;;;;;;;;;;;1.90;99.90;;;;;;5030040;28;19917;-85
2022/03/13 05:57:52;;;;;;;;;;;1.90;99.90;;;;;;5055095;28;19920;-86
2022/03/13 06:00:22;;;;;;;;;;;2.00;99.90;;;;;;5048470;28;19920;-86
2022/03/13 06:02:47;;;;;;;;;;;2.10;99.90;;;;;;5036432;28;19931;-86
2022/03/13 06:05:14;;;;;;;;;;;2.20;99.90;;;;;;5042897;28;20320;-85
2022/03/13 06:07:40;;;;;;;;;;;2.30;99.90;;;;;;5037076;28;20012;-86
2022/03/13 06:10:06;;;;;;;;;;;2.40;99.90;;;;;;5035550;28;20393;-86
2022/03/13 06:12:31;;;;;;;;;;;2.50;99.90;;;;;;5038663;28;20015;-86
2022/03/13 06:14:57;;;;;;;;;;;2.70;99.90;;;;;;5044440;28;19935;-86
2022/03/13 06:17:23;;;;;;;;;;;2.80;99.90;;;;;;5043863;28;20003;-86
2022/03/13 06:19:49;;;;;;;;;;;2.90;99.80;;;;;;5056496;28;20397;-86
2022/03/13 06:22:15;;;;;;;;;;;3.00;98.50;;;;;;5062106;28;19952;-85
2022/03/13 06:24:40;;;;;;;;;;;3.10;97.20;;;;;;5050042;28;19939;-85
2022/03/13 06:27:06;;;;;;;;;;;3.20;96.80;;;;;;5060485;28;19948;-85
2022/03/13 06:29:31;;;;;;;;;;;3.30;96.30;;;;;;5040233;28;19963;-85
2022/03/13 06:31:57;;;;;;;;;;;3.50;95.80;;;;;;5033140;28;19932;-85
2022/03/13 06:34:23;;;;;;;;;;;3.60;95.40;;;;;;5051677;28;20007;-85
2022/03/13 06:36:49;;;;;;;;;;;3.80;95.00;;;;;;5038425;28;20536;-85
2022/03/13 06:39:15;;;;;;;;;;;3.90;94.50;;;;;;5038276;28;20301;-85
2022/03/13 06:41:40;;;;;;;;;;;4.10;94.20;;;;;;5039666;28;19921;-85
2022/03/13 06:44:06;;;;;;;;;;;4.30;93.70;;;;;;5021814;28;20341;-85
2022/03/13 06:46:35;;;;;;;;;;;4.50;92.80;;;;;;5023391;28;19917;-85
2022/03/13 06:49:01;;;;;;;;;;;4.60;92.10;;;;;;5035122;28;19920;-85
2022/03/13 06:51:27;;;;;;;;;;;4.70;91.10;;;;;;5034224;28;19925;-85
2022/03/13 06:53:52;;;;;;;;;;;4.80;90.00;;;;;;5052216;28;20353;-85
2022/03/13 06:56:18;;;;;;;;;;;4.90;89.70;;;;;;5044174;28;20377;-85
2022/03/13 06:58:44;;;;;;;;;;;4.90;87.90;;;;;;5031444;28;19929;-85
2022/03/13 07:01:10;;;;;;;;;;;4.90;86.90;;;;;;5032689;28;20293;-85
2022/03/13 07:03:36;;;;;;;;;;;5.00;85.10;;;;;;5031836;28;19924;-85
2022/03/13 07:06:05;;;;;;;;;;;5.00;86.10;;;;;;5041716;28;19917;-85
2022/03/13 07:08:33;;;;;;;;;;;4.90;86.60;;;;;;5041230;28;19921;-85
2022/03/13 07:10:59;;;;;;;;;;;4.90;86.70;;;;;;5020749;28;19917;-85
2022/03/13 07:13:28;;;;;;;;;;;4.90;87.50;;;;;;5027234;28;19917;-85
2022/03/13 07:15:55;;;;;;;;;;;5.00;88.20;;;;;;5045824;28;19952;-85
2022/03/13 07:18:20;;;;;;;;;;;5.10;90.10;;;;;;5032727;28;19917;-85
2022/03/13 07:20:47;;;;;;;;;;;5.20;88.30;;;;;;5029292;28;20207;-85
2022/03/13 07:23:13;;;;;;;;;;;5.30;85.90;;;;;;5037773;28;19923;-85
2022/03/13 07:25:38;;;;;;;;;;;5.40;83.00;;;;;;5043823;28;19920;-85
2022/03/13 07:28:05;;;;;;;;;;;5.40;83.50;;;;;;5034969;28;20024;-85
2022/03/13 07:30:32;;;;;;;;;;;5.40;83.10;;;;;;5021832;28;19922;-85
2022/03/13 07:32:58;;;;;;;;;;;5.40;81.80;;;;;;5027662;28;19921;-85
2022/03/13 07:35:23;;;;;;;;;;;5.30;81.50;;;;;;5063063;28;20011;-86
2022/03/13 07:37:49;;;;;;;;;;;5.20;84.00;;;;;;5047374;28;20053;-85
2022/03/13 07:40:14;;;;;;;;;;;5.20;87.40;;;;;;5021358;28;20370;-85
2022/03/13 07:42:40;;;;;;;;;;;5.20;90.20;;;;;;5037229;28;19928;-83
2022/03/13 07:45:09;;;;;;;;;;;5.20;90.70;;;;;;5024049;28;19967;-83
2022/03/13 07:47:34;;;;;;;;;;;5.20;90.60;;;;;;5040616;28;20377;-83
2022/03/13 07:50:00;;;;;;;;;;;5.20;91.00;;;;;;5038914;28;19928;-83
2022/03/13 07:52:25;;;;;;;;;;;5.20;91.00;;;;;;5016758;28;20511;-83
2022/03/13 07:54:51;;;;;;;;;;;5.30;91.50;;;;;;5035372;28;19921;-83
2022/03/13 07:57:16;;;;;;;;;;;5.40;91.50;;;;;;5030607;28;20012;-83
2022/03/13 07:59:42;;;;;;;;;;;5.50;91.60;;;;;;5040858;28;19913;-84
2022/03/13 08:02:08;;;;;;;;;;;5.60;91.00;;;;;;5043173;28;19921;-83
2022/03/13 08:04:34;;;;;;;;;;;5.80;90.00;;;;;;5040249;28;19923;-83
2022/03/13 08:06:59;;;;;;;;;;;5.80;86.60;;;;;;5040280;28;19912;-84
2022/03/13 08:09:25;;;;;;;;;;;5.90;82.10;;;;;;5045950;28;20047;-83
2022/03/13 08:11:52;;;;;;;;;;;6.00;80.20;;;;;;5043756;28;19920;-83
2022/03/13 08:14:17;;;;;;;;;;;6.10;79.80;;;;;;5033141;28;19905;-83
2022/03/13 08:16:43;;;;;;;;;;;6.10;78.10;;;;;;5033138;28;19955;-83
2022/03/13 08:19:10;;;;;;;;;;;6.20;75.50;;;;;;5045521;28;19917;-83
2022/03/13 08:21:36;;;;;;;;;;;6.30;73.20;;;;;;5050693;28;19920;-83
2022/03/13 08:24:07;;;;;;;;;;;6.40;67.90;;;;;;5045420;28;19917;-83
2022/03/13 08:26:36;;;;;;;;;;;6.50;67.90;;;;;;5040370;28;19947;-84
2022/03/13 08:29:01;;;;;;;;;;;6.70;64.70;;;;;;5045140;28;19917;-83
2022/03/13 08:31:27;;;;;;;;;;;6.80;63.50;;;;;;5035743;28;20433;-84
2022/03/13 08:33:52;;;;;;;;;;;7.10;61.20;;;;;;5026548;28;19917;-84
2022/03/13 08:36:18;;;;;;;;;;;7.30;59.80;;;;;;5052014;28;20328;-84
2022/03/13 08:38:43;;;;;;;;;;;7.50;59.50;;;;;;5044288;28;20301;-84
2022/03/13 08:41:09;;;;;;;;;;;7.60;58.20;;;;;;5043750;28;19964;-84
2022/03/13 08:43:35;;;;;;;;;;;7.60;58.80;;;;;;5050492;28;19970;-83
2022/03/13 08:46:00;;;;;;;;;;;7.70;59.00;;;;;;5024595;28;19917;-83
2022/03/13 08:48:26;;;;;;;;;;;7.70;58.90;;;;;;5020896;28;19918;-83
2022/03/13 08:50:51;;;;;;;;;;;7.80;58.80;;;;;;5041190;28;20606;-84
2022/03/13 08:53:17;;;;;;;;;;;7.90;57.70;;;;;;5021015;28;19929;-83
2022/03/13 08:55:43;;;;;;;;;;;7.90;57.60;;;;;;5028485;28;20013;-84
2022/03/13 08:58:09;;;;;;;;;;;7.90;57.50;;;;;;5053726;28;19917;-83
2022/03/13 09:00:35;;;;;;;;;;;7.90;56.60;;;;;;5044158;28;19923;-84
2022/03/13 09:03:01;;;;;;;;;;;7.80;57.40;;;;;;5045209;28;20371;-83
2022/03/13 09:05:26;;;;;;;;;;;7.80;56.60;;;;;;5045766;28;19921;-83
2022/03/13 09:07:52;;;;;;;;;;;7.80;57.00;;;;;;5029710;28;19924;-84
2022/03/13 09:10:18;;;;;;;;;;;7.70;58.90;;;;;;5026437;28;19917;-84
2022/03/13 09:12:43;;;;;;;;;;;7.80;58.70;;;;;;5034293;28;19993;-84
2022/03/13 09:15:09;;;;;;;;;;;7.80;58.30;;;;;;5024631;28;20046;-84
2022/03/13 09:17:38;;;;;;;;;;;7.90;58.50;;;;;;5047814;28;20362;-84
2022/03/13 09:20:04;;;;;;;;;;;8.00;57.80;;;;;;5046108;28;19963;-84
2022/03/13 09:22:30;;;;;;;;;;;8.00;58.00;;;;;;5048853;28;19925;-84
2022/03/13 09:24:57;;;;;;;;;;;8.00;59.10;;;;;;5057992;28;19913;-84
2022/03/13 09:27:26;;;;;;;;;;;8.10;59.00;;;;;;5048985;28;20485;-84
2022/03/13 09:29:53;;;;;;;;;;;8.10;57.70;;;;;;5037822;28;20385;-84
2022/03/13 09:32:18;;;;;;;;;;;8.20;57.50;;;;;;5044777;28;20468;-84
2022/03/13 09:34:44;;;;;;;;;;;8.20;57.50;;;;;;5036047;28;19917;-83
2022/03/13 09:37:10;;;;;;;;;;;8.20;57.60;;;;;;5038987;28;19928;-84
2022/03/13 09:39:38;;;;;;;;;;;8.20;57.80;;;;;;5045156;28;19917;-84
2022/03/13 09:42:04;;;;;;;;;;;8.20;57.30;;;;;;5043980;28;20358;-84
2022/03/13 09:44:29;;;;;;;;;;;8.40;56.50;;;;;;5043536;28;19917;-84
2022/03/13 09:46:55;;;;;;;;;;;8.40;56.80;;;;;;5029222;28;19925;-84
2022/03/13 09:49:21;;;;;;;;;;;8.50;56.60;;;;;;5049138;28;19919;-84
2022/03/13 09:51:46;;;;;;;;;;;8.60;56.60;;;;;;5041468;28;19948;-84
2022/03/13 09:54:13;;;;;;;;;;;8.70;57.10;;;;;;5048190;28;19913;-84
2022/03/13 09:56:38;;;;;;;;;;;8.90;56.70;;;;;;5042757;28;19936;-84
2022/03/13 09:59:04;;;;;;;;;;;9.00;55.50;;;;;;5050421;28;20000;-84
2022/03/13 10:01:30;;;;;;;;;;;9.10;55.70;;;;;;5044272;28;19925;-83
2022/03/13 10:03:55;;;;;;;;;;;9.20;56.90;;;;;;5042989;28;19917;-83
2022/03/13 10:06:21;;;;;;;;;;;9.30;55.20;;;;;;5045295;28;19913;-84
2022/03/13 10:08:46;;;;;;;;;;;9.40;54.80;;;;;;5029646;28;19927;-84
2022/03/13 10:11:12;;;;;;;;;;;9.50;55.30;;;;;;5046620;28;19921;-84
2022/03/13 10:13:38;;;;;;;;;;;9.70;54.40;;;;;;5052601;28;19920;-84
2022/03/13 10:16:05;;;;;;;;;;;9.80;54.30;;;;;;5055369;28;19971;-84
2022/03/13 10:18:31;;;;;;;;;;;9.90;54.30;;;;;;5061069;28;19949;-84
2022/03/13 10:20:56;;;;;;;;;;;10.00;54.10;;;;;;5043761;28;20301;-84
2022/03/13 10:23:23;;;;;;;;;;;10.20;54.80;;;;;;5054511;28;19920;-84
2022/03/13 10:25:49;;;;;;;;;;;10.30;54.20;;;;;;5040451;28;19917;-84
2022/03/13 10:28:15;;;;;;;;;;;10.40;53.10;;;;;;5050435;28;20015;-84
2022/03/13 10:30:41;;;;;;;;;;;10.40;53.00;;;;;;5051032;28;19956;-85
2022/03/13 10:33:08;;;;;;;;;;;10.50;53.80;;;;;;5048188;28;19921;-84
2022/03/13 10:35:37;;;;;;;;;;;10.60;53.70;;;;;;5031926;28;19925;-84
2022/03/13 10:38:16;;;;;;;;;;;10.70;54.50;;;;;;5044199;28;20587;-84
2022/03/13 10:40:41;;;;;;;;;;;10.70;53.60;;;;;;5025739;28;19967;-84
2022/03/13 10:43:09;;;;;;;;;;;10.80;52.20;;;;;;5049217;28;19916;-84
2022/03/13 10:45:39;;;;;;;;;;;10.90;51.80;;;;;;5041000;28;20249;-84
2022/03/13 10:48:16;;;;;;;;;;;11.00;52.20;;;;;;5059880;28;20482;-84
2022/03/13 10:50:45;;;;;;;;;;;11.10;52.10;;;;;;5043207;28;19916;-84
2022/03/13 10:53:12;;;;;;;;;;;11.20;52.20;;;;;;5043083;28;19912;-84
2022/03/13 10:55:38;;;;;;;;;;;11.20;50.50;;;;;;5046027;28;19913;-84
2022/03/13 10:58:04;;;;;;;;;;;11.20;50.40;;;;;;5099795;22;20030;-82
2022/03/13 11:00:30;;;;;;;;;;;11.30;50.90;;;;;;5067802;28;20370;-82
2022/03/13 11:03:14;;;;;;;;;;;11.30;50.70;;;;;;5058319;28;19924;-82
2022/03/13 11:05:40;;;;;;;;;;;11.40;50.60;;;;;;5071341;28;19913;-82
2022/03/13 11:08:09;;;;;;;;;;;11.40;51.70;;;;;;5072650;28;19955;-82
2022/03/13 11:10:38;;;;;;;;;;;11.50;50.80;;;;;;5054236;28;19917;-82
2022/03/13 11:13:06;;;;;;;;;;;11.60;50.80;;;;;;5072072;28;19913;-82
2022/03/13 11:15:34;;;;;;;;;;;11.60;51.30;;;;;;5069264;28;19995;-81
2022/03/13 11:18:01;;;;;;;;;;;11.80;51.70;;;;;;5059297;28;19920;-82
2022/03/13 11:20:29;;;;;;;;;;;11.80;50.70;;;;;;5055115;28;19917;-81
2022/03/13 11:22:54;;;;;;;;;;;11.90;50.90;;;;;;5074614;28;20022;-81
2022/03/13 11:25:21;;;;;;;;;;;12.00;50.10;;;;;;5058379;28;20376;-80
2022/03/13 11:27:47;;;;;;;;;;;12.00;49.80;;;;;;5072396;28;19934;-81
2022/03/13 11:30:15;;;;;;;;;;;12.10;50.60;;;;;;5057332;28;22135;-81
2022/03/13 11:32:51;;;;;;;;;;;12.20;51.20;;;;;;5060473;28;19932;-83
2022/03/13 11:35:17;;;;;;;;;;;12.30;49.90;;;;;;5064980;28;19912;-83
2022/03/13 11:37:43;;;;;;;;;;;12.40;50.00;;;;;;5070669;28;19913;-82
2022/03/13 11:40:10;;;;;;;;;;;12.50;49.20;;;;;;5057996;28;19913;-83
2022/03/13 11:42:49;;;;;;;;;;;12.60;49.00;;;;;;5054448;28;19924;-82
2022/03/13 11:45:30;;;;;;;;;;;12.70;48.60;;;;;;5069190;28;20321;-83
2022/03/13 11:47:56;;;;;;;;;;;12.70;48.50;;;;;;5068002;28;19917;-84
2022/03/13 11:50:40;;;;;;;;;;;12.70;48.60;;;;;;5045170;28;19925;-84
2022/03/13 11:53:16;;;;;;;;;;;12.80;48.80;;;;;;5069628;28;19935;-84
2022/03/13 11:55:57;;;;;;;;;;;12.90;47.60;;;;;;5044868;28;19921;-84
2022/03/13 11:58:42;;;;;;;;;;;12.90;47.70;;;;;;5068575;28;19960;-88
2022/03/13 12:01:15;;;;;;;;;;;13.00;47.20;;;;;;5074893;28;19923;-81
2022/03/13 12:03:59;;;;;;;;;;;13.00;46.80;;;;;;5076247;28;20009;-82
2022/03/13 12:06:43;;;;;;;;;;;13.00;46.10;;;;;;5072485;28;19978;-84
2022/03/13 12:09:09;;;;;;;;;;;13.10;46.80;;;;;;5068344;28;19912;-84
2022/03/13 12:11:34;;;;;;;;;;;13.20;48.30;;;;;;5069294;28;20518;-83
2022/03/13 12:14:00;;;;;;;;;;;13.20;46.70;;;;;;5070144;28;20363;-83
2022/03/13 12:16:25;;;;;;;;;;;13.30;46.90;;;;;;5053289;28;19912;-83
2022/03/13 12:18:58;;;;;;;;;;;13.30;46.80;;;;;;5053037;28;20477;-83
2022/03/13 12:21:24;;;;;;;;;;;13.40;46.10;;;;;;5053105;28;20390;-83
2022/03/13 12:23:49;;;;;;;;;;;13.40;46.20;;;;;;5053176;28;19920;-83
2022/03/13 12:26:22;;;;;;;;;;;13.50;48.30;;;;;;5070088;28;19919;-83
2022/03/13 12:28:49;;;;;;;;;;;13.60;48.10;;;;;;5053045;28;19916;-83
2022/03/13 12:31:15;;;;;;;;;;;13.70;47.80;;;;;;5069198;28;19947;-83
2022/03/13 12:33:47;;;;;;;;;;;13.70;47.80;;;;;;5052989;28;19997;-84
2022/03/13 12:36:14;;;;;;;;;;;13.70;46.60;;;;;;5069792;28;20303;-83
2022/03/13 12:38:43;;;;;;;;;;;13.70;47.70;;;;;;5069512;28;19908;-83
2022/03/13 12:41:10;;;;;;;;;;;13.80;50.30;;;;;;5053252;28;19920;-83
2022/03/13 12:43:58;;;;;;;;;;;13.90;48.50;;;;;;5069716;28;19908;-83
2022/03/13 12:46:26;;;;;;;;;;;13.90;48.50;;;;;;5069663;28;19916;-83
2022/03/13 12:48:56;;;;;;;;;;;14.00;47.40;;;;;;5053043;28;19912;-83
2022/03/13 12:51:35;;;;;;;;;;;14.00;47.90;;;;;;5053158;28;19969;-83
2022/03/13 12:54:03;;;;;;;;;;;13.90;47.10;;;;;;5069632;28;19915;-83
2022/03/13 12:56:29;;;;;;;;;;;14.00;47.60;;;;;;5069617;28;19913;-83
2022/03/13 12:58:55;;;;;;;;;;;14.20;48.60;;;;;;5069494;28;19916;-83
2022/03/13 13:01:21;;;;;;;;;;;14.40;48.20;;;;;;5052654;28;19917;-83
2022/03/13 13:03:53;;;;;;;;;;;14.50;47.70;;;;;;5052845;28;19962;-83
2022/03/13 13:06:28;;;;;;;;;;;14.60;46.90;;;;;;5069459;28;20004;-83
2022/03/13 13:08:54;;;;;;;;;;;14.60;47.30;;;;;;5052632;28;19916;-83
2022/03/13 13:11:37;;;;;;;;;;;14.80;47.10;;;;;;5052625;28;19966;-83
2022/03/13 13:14:03;;;;;;;;;;;14.80;45.50;;;;;;5069238;28;20294;-83
2022/03/13 13:16:31;;;;;;;;;;;14.80;47.20;;;;;;5052782;28;19912;-83
2022/03/13 13:19:00;;;;;;;;;;;14.90;48.50;;;;;;5069936;28;19919;-83
2022/03/13 13:21:33;;;;;;;;;;;15.00;48.60;;;;;;5070093;28;19913;-83
2022/03/13 13:23:58;;;;;;;;;;;15.00;47.50;;;;;;5066982;28;19918;-83
2022/03/13 13:26:42;;;;;;;;;;;15.00;45.50;;;;;;5043111;28;19926;-82
2022/03/13 13:29:07;;;;;;;;;;;15.00;46.60;;;;;;5054848;28;20032;-83
2022/03/13 13:31:33;;;;;;;;;;;14.90;47.00;;;;;;5061498;28;20015;-83
2022/03/13 13:34:14;;;;;;;;;;;15.00;45.00;;;;;;5051423;28;19917;-82
2022/03/13 13:36:41;;;;;;;;;;;15.10;47.70;;;;;;5069958;28;20011;-90
2022/03/13 13:39:09;;;;;;;;;;;15.30;45.10;;;;;;5069068;28;19922;-90
2022/03/13 13:41:35;;;;;;;;;;;15.30;45.10;;;;;;5071054;28;19989;-82
2022/03/13 13:44:03;;;;;;;;;;;15.40;44.70;;;;;;5079210;28;20359;-82
2022/03/13 13:46:30;;;;;;;;;;;15.40;45.00;;;;;;5078452;28;19958;-82
2022/03/13 13:48:56;;;;;;;;;;;15.60;45.40;;;;;;5074836;28;20038;-82
2022/03/13 13:51:28;;;;;;;;;;;15.80;46.10;;;;;;5058972;28;20410;-82
2022/03/13 13:54:05;;;;;;;;;;;15.90;45.30;;;;;;5071784;28;19912;-82
2022/03/13 13:56:37;;;;;;;;;;;16.10;44.80;;;;;;5074980;28;20004;-82
2022/03/13 13:59:15;;;;;;;;;;;16.20;45.20;;;;;;5061723;28;20402;-83
2022/03/13 14:01:42;;;;;;;;;;;16.10;44.30;;;;;;5070799;28;19956;-83
2022/03/13 14:04:08;;;;;;;;;;;15.90;43.50;;;;;;5041900;28;19917;-83
2022/03/13 14:06:37;;;;;;;;;;;15.80;43.60;;;;;;5052110;28;19965;-88
2022/03/13 14:09:04;;;;;;;;;;;15.60;44.60;;;;;;5072770;28;19952;-82
2022/03/13 14:11:29;;;;;;;;;;;15.40;44.70;;;;;;5072934;28;20375;-91
2022/03/13 14:13:55;;;;;;;;;;;15.30;44.40;;;;;;5041872;28;19924;-82
2022/03/13 14:16:20;;;;;;;;;;;15.20;45.50;;;;;;5052764;28;19924;-82
2022/03/13 14:18:46;;;;;;;;;;;15.20;45.70;;;;;;5053176;28;19958;-82
2022/03/13 14:21:16;;;;;;;;;;;15.00;45.40;;;;;;5056382;28;20315;-82
2022/03/13 14:23:43;;;;;;;;;;;14.90;46.00;;;;;;5053185;28;19951;-82
2022/03/13 14:26:08;;;;;;;;;;;14.80;45.30;;;;;;5064873;28;19920;-85